Time;durP1;ratioP1;P1;durP2;ratioP2;P2;SDS_P1;SDS_P2;PMS_P1;PMS_P2;Temp;Humidity;BMP_temperature;BMP_pressure;BME280_temperature;BME280_humidity;BME280_pressure;Samples;Min_cycle;Max_cycle;Signal;HPM_P1;HPM_P2
2022/11/14 00:02:15;;;;;;;;;;;;;;;;;;5027581;28;20034;-60
2022/11/14 00:04:59;;;;;;;;;;;;;;;;;;5025062;28;19940;-59
2022/11/14 00:07:44;;;;;;;;;;;;;;;;;;5025863;28;19956;-60
2022/11/14 00:10:28;;;;;;;;;;;;;;;;;;5025008;28;20477;-60
2022/11/14 00:13:12;;;;;;;;;;;;;;;;;;5026293;28;19928;-60
2022/11/14 00:15:56;;;;;;;;;;;;;;;;;;5028261;28;19931;-61
2022/11/14 00:18:40;;;;;;;;;;;;;;;;;;5025781;28;19924;-60
2022/11/14 00:21:24;;;;;;;;;;;;;;;;;;5028789;28;19927;-60
2022/11/14 00:24:08;;;;;;;;;;;;;;;;;;5026357;28;19995;-60
2022/11/14 00:26:52;;;;;;;;;;;;;;;;;;5030259;28;20388;-60
2022/11/14 00:29:37;;;;;;;;;;;;;;;;;;5025342;28;19956;-60
2022/11/14 00:32:21;;;;;;;;;;;;;;;;;;5029346;28;19924;-61
2022/11/14 00:35:05;;;;;;;;;;;;;;;;;;5027671;28;19923;-60
2022/11/14 00:37:48;;;;;;;;;;;;;;;;;;5027523;28;19971;-60
2022/11/14 00:40:32;;;;;;;;;;;;;;;;;;5029080;28;20678;-60
2022/11/14 00:43:16;;;;;;;;;;;;;;;;;;5026890;28;19924;-60
2022/11/14 00:46:00;;;;;;;;;;;;;;;;;;5026780;28;20700;-60
2022/11/14 00:48:44;;;;;;;;;;;;;;;;;;5026013;28;19932;-60
2022/11/14 00:51:28;;;;;;;;;;;;;;;;;;5027107;28;20325;-60
2022/11/14 00:54:12;;;;;;;;;;;;;;;;;;5029455;28;19971;-60
2022/11/14 00:56:56;;;;;;;;;;;;;;;;;;5029445;28;19961;-61
2022/11/14 00:59:40;;;;;;;;;;;;;;;;;;5026886;28;19955;-61
2022/11/14 01:02:24;;;;;;;;;;;;;;;;;;5021354;28;20401;-60
2022/11/14 01:05:08;;;;;;;;;;;;;;;;;;5027270;28;20462;-60
2022/11/14 01:07:52;;;;;;;;;;;;;;;;;;5024147;28;20409;-60
2022/11/14 01:10:36;;;;;;;;;;;;;;;;;;5031496;28;20273;-61
2022/11/14 01:13:20;;;;;;;;;;;;;;;;;;5025154;28;20285;-60
2022/11/14 01:16:04;;;;;;;;;;;;;;;;;;5029455;28;20278;-60
2022/11/14 01:18:48;;;;;;;;;;;;;;;;;;5028926;28;19932;-61
2022/11/14 01:21:32;;;;;;;;;;;;;;;;;;5027503;28;19927;-61
2022/11/14 01:24:16;;;;;;;;;;;;;;;;;;5030805;28;20264;-61
2022/11/14 01:27:00;;;;;;;;;;;;;;;;;;5028127;28;20182;-61
2022/11/14 01:29:45;;;;;;;;;;;;;;;;;;5029850;28;19971;-60
2022/11/14 01:32:28;;;;;;;;;;;;;;;;;;5027399;28;20008;-60
2022/11/14 01:35:12;;;;;;;;;;;;;;;;;;5024798;28;19924;-61
2022/11/14 01:37:57;;;;;;;;;;;;;;;;;;5026973;28;20290;-60
2022/11/14 01:40:41;;;;;;;;;;;;;;;;;;5027421;28;19928;-61
2022/11/14 01:43:25;;;;;;;;;;;;;;;;;;5023563;28;19927;-61
2022/11/14 01:46:09;;;;;;;;;;;;;;;;;;5029682;28;19919;-61
2022/11/14 01:48:53;;;;;;;;;;;;;;;;;;5027709;28;20277;-61
2022/11/14 01:51:37;;;;;;;;;;;;;;;;;;5028663;28;19939;-61
2022/11/14 01:54:21;;;;;;;;;;;;;;;;;;5026960;28;19928;-60
2022/11/14 01:57:05;;;;;;;;;;;;;;;;;;5029828;28;20054;-60
2022/11/14 01:59:49;;;;;;;;;;;;;;;;;;5032354;28;19928;-60
2022/11/14 02:02:33;;;;;;;;;;;;;;;;;;5030651;28;19975;-59
2022/11/14 02:05:17;;;;;;;;;;;;;;;;;;5028731;28;19979;-59
2022/11/14 02:08:01;;;;;;;;;;;;;;;;;;5028454;28;20473;-59
2022/11/14 02:10:45;;;;;;;;;;;;;;;;;;5030427;28;19924;-60
2022/11/14 02:13:29;;;;;;;;;;;;;;;;;;5034211;28;20278;-61
2022/11/14 02:16:13;;;;;;;;;;;;;;;;;;5031198;28;19967;-60
2022/11/14 02:18:57;;;;;;;;;;;;;;;;;;5029541;28;19970;-60
2022/11/14 02:21:41;;;;;;;;;;;;;;;;;;5028578;28;19928;-60
2022/11/14 02:24:25;;;;;;;;;;;;;;;;;;5022945;28;19954;-60
2022/11/14 02:27:09;;;;;;;;;;;;;;;;;;5028302;28;20320;-61
2022/11/14 02:29:53;;;;;;;;;;;;;;;;;;5032414;28;20005;-61
2022/11/14 02:32:37;;;;;;;;;;;;;;;;;;5027134;28;20145;-61
2022/11/14 02:35:21;;;;;;;;;;;;;;;;;;5026895;28;19920;-60
2022/11/14 02:38:04;;;;;;;;;;;;;;;;;;5030749;28;20011;-61
2022/11/14 02:40:49;;;;;;;;;;;;;;;;;;5026447;28;19972;-61
2022/11/14 02:43:32;;;;;;;;;;;;;;;;;;5025585;28;19927;-61
2022/11/14 02:46:16;;;;;;;;;;;;;;;;;;5028562;28;20010;-60
2022/11/14 02:49:00;;;;;;;;;;;;;;;;;;5031287;28;20055;-61
2022/11/14 02:51:44;;;;;;;;;;;;;;;;;;5030259;28;19963;-60
2022/11/14 02:54:28;;;;;;;;;;;;;;;;;;5025358;28;19924;-60
2022/11/14 02:57:13;;;;;;;;;;;;;;;;;;5032958;28;19925;-60
2022/11/14 02:59:57;;;;;;;;;;;;;;;;;;5029750;28;19924;-60
2022/11/14 03:02:41;;;;;;;;;;;;;;;;;;5027534;28;19975;-60
2022/11/14 03:05:25;;;;;;;;;;;;;;;;;;5031571;28;19994;-61
2022/11/14 03:08:09;;;;;;;;;;;;;;;;;;5030276;28;20337;-62
2022/11/14 03:10:53;;;;;;;;;;;;;;;;;;5029926;28;19947;-61
2022/11/14 03:13:37;;;;;;;;;;;;;;;;;;5028046;28;19932;-61
2022/11/14 03:16:21;;;;;;;;;;;;;;;;;;5027063;28;20605;-60
2022/11/14 03:19:05;;;;;;;;;;;;;;;;;;5030502;28;19959;-61
2022/11/14 03:21:49;;;;;;;;;;;;;;;;;;5031956;28;20004;-61
2022/11/14 03:24:33;;;;;;;;;;;;;;;;;;5033875;28;20192;-60
2022/11/14 03:27:17;;;;;;;;;;;;;;;;;;5028253;28;19939;-61
2022/11/14 03:30:01;;;;;;;;;;;;;;;;;;5029251;28;19947;-60
2022/11/14 03:32:45;;;;;;;;;;;;;;;;;;5029319;28;20393;-60
2022/11/14 03:35:29;;;;;;;;;;;;;;;;;;5027819;28;19928;-60
2022/11/14 03:38:13;;;;;;;;;;;;;;;;;;5027810;28;19923;-60
2022/11/14 03:40:57;;;;;;;;;;;;;;;;;;5028690;28;19927;-60
2022/11/14 03:43:41;;;;;;;;;;;;;;;;;;5028838;28;20044;-60
2022/11/14 03:46:25;;;;;;;;;;;;;;;;;;5029064;28;19974;-60
2022/11/14 03:49:08;;;;;;;;;;;;;;;;;;5027441;28;19928;-60
2022/11/14 03:51:52;;;;;;;;;;;;;;;;;;5028160;28;20427;-60
2022/11/14 03:54:36;;;;;;;;;;;;;;;;;;5028122;28;19924;-61
2022/11/14 03:57:20;;;;;;;;;;;;;;;;;;5023729;28;19928;-59
2022/11/14 04:00:04;;;;;;;;;;;;;;;;;;5029430;28;20064;-60
2022/11/14 04:02:48;;;;;;;;;;;;;;;;;;5028282;28;19998;-59
2022/11/14 04:05:32;;;;;;;;;;;;;;;;;;5028734;28;19924;-59
2022/11/14 04:08:17;;;;;;;;;;;;;;;;;;5029463;28;20341;-59
2022/11/14 04:11:00;;;;;;;;;;;;;;;;;;5031527;28;20041;-59
2022/11/14 04:13:44;;;;;;;;;;;;;;;;;;5028058;28;19967;-60
2022/11/14 04:16:28;;;;;;;;;;;;;;;;;;5030065;28;20225;-60
2022/11/14 04:19:12;;;;;;;;;;;;;;;;;;5024694;28;19959;-59
2022/11/14 04:21:56;;;;;;;;;;;;;;;;;;5026236;28;20285;-59
2022/11/14 04:24:40;;;;;;;;;;;;;;;;;;5030346;28;19927;-59
2022/11/14 04:27:24;;;;;;;;;;;;;;;;;;5027924;28;19923;-60
2022/11/14 04:30:08;;;;;;;;;;;;;;;;;;5025299;28;19970;-60
2022/11/14 04:32:52;;;;;;;;;;;;;;;;;;5027766;28;19923;-59
2022/11/14 04:35:36;;;;;;;;;;;;;;;;;;5027120;28;19960;-61
2022/11/14 04:38:20;;;;;;;;;;;;;;;;;;5029228;28;19923;-59
2022/11/14 04:41:04;;;;;;;;;;;;;;;;;;5027895;28;19925;-59
2022/11/14 04:43:48;;;;;;;;;;;;;;;;;;5027330;28;20410;-59
2022/11/14 04:46:32;;;;;;;;;;;;;;;;;;5026002;28;19923;-59
2022/11/14 04:49:16;;;;;;;;;;;;;;;;;;5026140;28;20215;-59
2022/11/14 04:52:00;;;;;;;;;;;;;;;;;;5027848;28;19927;-59
2022/11/14 04:54:44;;;;;;;;;;;;;;;;;;5031412;28;19971;-59
2022/11/14 04:57:28;;;;;;;;;;;;;;;;;;5026779;28;20320;-59
2022/11/14 05:00:12;;;;;;;;;;;;;;;;;;5025471;28;19928;-59
2022/11/14 05:02:56;;;;;;;;;;;;;;;;;;5027382;28;19932;-59
2022/11/14 05:05:39;;;;;;;;;;;;;;;;;;5029920;28;19928;-59
2022/11/14 05:08:23;;;;;;;;;;;;;;;;;;5028719;28;20273;-59
2022/11/14 05:11:07;;;;;;;;;;;;;;;;;;5027200;28;20467;-59
2022/11/14 05:13:51;;;;;;;;;;;;;;;;;;5028639;28;19971;-59
2022/11/14 05:16:35;;;;;;;;;;;;;;;;;;5025803;28;19924;-59
2022/11/14 05:19:19;;;;;;;;;;;;;;;;;;5027346;28;20012;-59
2022/11/14 05:22:04;;;;;;;;;;;;;;;;;;5023795;28;19975;-59
2022/11/14 05:24:48;;;;;;;;;;;;;;;;;;5028659;28;19932;-60
2022/11/14 05:27:32;;;;;;;;;;;;;;;;;;5026023;28;20055;-59
2022/11/14 05:30:16;;;;;;;;;;;;;;;;;;5029799;28;19970;-59
2022/11/14 05:33:00;;;;;;;;;;;;;;;;;;5034865;28;19928;-60
2022/11/14 05:35:44;;;;;;;;;;;;;;;;;;5032273;28;19963;-60
2022/11/14 05:38:28;;;;;;;;;;;;;;;;;;5033523;28;19944;-60
2022/11/14 05:41:11;;;;;;;;;;;;;;;;;;5032926;28;19928;-59
2022/11/14 05:43:55;;;;;;;;;;;;;;;;;;5032984;28;20392;-60
2022/11/14 05:46:39;;;;;;;;;;;;;;;;;;5028248;28;20372;-59
2022/11/14 05:49:23;;;;;;;;;;;;;;;;;;5032533;28;19964;-60
2022/11/14 05:52:07;;;;;;;;;;;;;;;;;;5033418;28;20074;-60
2022/11/14 05:54:51;;;;;;;;;;;;;;;;;;5027397;28;19924;-59
2022/11/14 05:57:35;;;;;;;;;;;;;;;;;;5029778;28;20430;-59
2022/11/14 06:00:19;;;;;;;;;;;;;;;;;;5034278;28;20345;-60
2022/11/14 06:03:03;;;;;;;;;;;;;;;;;;5029598;28;20317;-59
2022/11/14 06:05:47;;;;;;;;;;;;;;;;;;5030948;28;19990;-59
2022/11/14 06:08:31;;;;;;;;;;;;;;;;;;5027748;28;20289;-59
2022/11/14 06:11:15;;;;;;;;;;;;;;;;;;5030186;28;19932;-59
2022/11/14 06:13:59;;;;;;;;;;;;;;;;;;5027673;28;19943;-60
2022/11/14 06:16:42;;;;;;;;;;;;;;;;;;5032985;28;20468;-60
2022/11/14 06:19:26;;;;;;;;;;;;;;;;;;5029511;28;19924;-60
2022/11/14 06:22:10;;;;;;;;;;;;;;;;;;5031955;28;20478;-59
2022/11/14 06:24:54;;;;;;;;;;;;;;;;;;5029503;28;19926;-60
2022/11/14 06:27:38;;;;;;;;;;;;;;;;;;5025045;28;20099;-60
2022/11/14 06:30:22;;;;;;;;;;;;;;;;;;5022917;28;19931;-60
2022/11/14 06:33:06;;;;;;;;;;;;;;;;;;5025157;28;19924;-60
2022/11/14 06:35:50;;;;;;;;;;;;;;;;;;5027702;28;20004;-58
2022/11/14 06:38:34;;;;;;;;;;;;;;;;;;5022724;28;19924;-59
2022/11/14 06:41:18;;;;;;;;;;;;;;;;;;5026610;28;19924;-59
2022/11/14 06:44:02;;;;;;;;;;;;;;;;;;5030497;28;19964;-59
2022/11/14 06:46:46;;;;;;;;;;;;;;;;;;5031809;28;19920;-60
2022/11/14 06:49:30;;;;;;;;;;;;;;;;;;5030365;28;19928;-58
2022/11/14 06:52:14;;;;;;;;;;;;;;;;;;5030094;28;19971;-59
2022/11/14 06:54:58;;;;;;;;;;;;;;;;;;5029827;28;20004;-59
2022/11/14 06:57:42;;;;;;;;;;;;;;;;;;5031226;28;19944;-59
2022/11/14 07:00:26;;;;;;;;;;;;;;;;;;5029143;28;19943;-60
2022/11/14 07:03:10;;;;;;;;;;;;;;;;;;5028495;28;19994;-60
2022/11/14 07:05:54;;;;;;;;;;;;;;;;;;5031576;28;19939;-61
2022/11/14 07:08:38;;;;;;;;;;;;;;;;;;5030803;28;19971;-61
2022/11/14 07:11:22;;;;;;;;;;;;;;;;;;5029571;28;19925;-61
2022/11/14 07:14:06;;;;;;;;;;;;;;;;;;5028060;28;19925;-61
2022/11/14 07:16:50;;;;;;;;;;;;;;;;;;5033947;28;19976;-61
2022/11/14 07:19:34;;;;;;;;;;;;;;;;;;5034110;28;19975;-61
2022/11/14 07:22:18;;;;;;;;;;;;;;;;;;5029017;28;19971;-61
2022/11/14 07:25:02;;;;;;;;;;;;;;;;;;5032075;28;19928;-61
2022/11/14 07:27:46;;;;;;;;;;;;;;;;;;5027704;28;20198;-60
2022/11/14 07:30:30;;;;;;;;;;;;;;;;;;5028234;28;20364;-61
2022/11/14 07:33:13;;;;;;;;;;;;;;;;;;5028310;28;20460;-62
2022/11/14 07:35:58;;;;;;;;;;;;;;;;;;5027060;28;19987;-62
2022/11/14 07:38:42;;;;;;;;;;;;;;;;;;5029374;28;20243;-60
2022/11/14 07:41:26;;;;;;;;;;;;;;;;;;5028468;28;19944;-61
2022/11/14 07:44:10;;;;;;;;;;;;;;;;;;5021908;28;20405;-62
2022/11/14 07:46:54;;;;;;;;;;;;;;;;;;5019013;28;20060;-61
2022/11/14 07:49:37;;;;;;;;;;;;;;;;;;5027623;28;19924;-62
2022/11/14 07:52:22;;;;;;;;;;;;;;;;;;5028267;28;20467;-61
2022/11/14 07:55:05;;;;;;;;;;;;;;;;;;5027256;28;19996;-60
2022/11/14 07:57:49;;;;;;;;;;;;;;;;;;5027461;28;20277;-62
2022/11/14 08:00:33;;;;;;;;;;;;;;;;;;5030073;28;20493;-60
2022/11/14 08:03:18;;;;;;;;;;;;;;;;;;5030718;28;20293;-60
2022/11/14 08:06:02;;;;;;;;;;;;;;;;;;5029686;28;19955;-60
2022/11/14 08:08:46;;;;;;;;;;;;;;;;;;5029002;28;19983;-60
2022/11/14 08:11:48;;;;;;;;;;;;;;;;;;5030600;28;19943;-60
2022/11/14 08:14:41;;;;;;;;;;;;;;;;;;5069134;28;20055;-61
2022/11/14 08:17:25;;;;;;;;;;;;;;;;;;5063381;28;19987;-61
2022/11/14 08:20:09;;;;;;;;;;;;;;;;;;5062789;28;20030;-61
2022/11/14 08:22:53;;;;;;;;;;;;;;;;;;5060651;28;19920;-61
2022/11/14 08:25:37;;;;;;;;;;;;;;;;;;5059787;28;19982;-60
2022/11/14 08:28:21;;;;;;;;;;;;;;;;;;5063647;28;19927;-61
2022/11/14 08:31:05;;;;;;;;;;;;;;;;;;5062107;28;20428;-61
2022/11/14 08:33:49;;;;;;;;;;;;;;;;;;5062836;28;20442;-60
2022/11/14 08:36:33;;;;;;;;;;;;;;;;;;5062053;28;19939;-60
2022/11/14 08:39:17;;;;;;;;;;;;;;;;;;5061847;28;20388;-60
2022/11/14 08:42:01;;;;;;;;;;;;;;;;;;5062750;28;19927;-62
2022/11/14 08:44:45;;;;;;;;;;;;;;;;;;5061564;28;20376;-61
2022/11/14 08:47:29;;;;;;;;;;;;;;;;;;5062746;28;19923;-61
2022/11/14 08:50:13;;;;;;;;;;;;;;;;;;5039277;28;19963;-61
2022/11/14 08:52:57;;;;;;;;;;;;;;;;;;5038967;28;19967;-63
2022/11/14 08:55:41;;;;;;;;;;;;;;;;;;5040567;28;20458;-61
2022/11/14 08:58:25;;;;;;;;;;;;;;;;;;5038414;28;19964;-61
2022/11/14 09:01:09;;;;;;;;;;;;;;;;;;5038069;28;19924;-60
2022/11/14 09:03:53;;;;;;;;;;;;;;;;;;5038433;28;19987;-60
2022/11/14 09:06:37;;;;;;;;;;;;;;;;;;5039728;28;19940;-61
2022/11/14 09:09:21;;;;;;;;;;;;;;;;;;5036606;28;19963;-61
2022/11/14 09:12:05;;;;;;;;;;;;;;;;;;5035761;28;19920;-60
2022/11/14 09:14:49;;;;;;;;;;;;;;;;;;5037539;28;19975;-61
2022/11/14 09:17:34;;;;;;;;;;;;;;;;;;5038365;28;19920;-61
2022/11/14 09:20:18;;;;;;;;;;;;;;;;;;5034735;28;19963;-61
2022/11/14 09:23:02;;;;;;;;;;;;;;;;;;5040160;28;19923;-61
2022/11/14 09:25:46;;;;;;;;;;;;;;;;;;5025708;28;19973;-61
2022/11/14 09:28:30;;;;;;;;;;;;;;;;;;5022069;28;19924;-61
2022/11/14 09:31:14;;;;;;;;;;;;;;;;;;5023689;28;19924;-61
2022/11/14 09:33:58;;;;;;;;;;;;;;;;;;5021310;28;19941;-61
2022/11/14 09:36:42;;;;;;;;;;;;;;;;;;5022917;28;19974;-60
2022/11/14 09:39:26;;;;;;;;;;;;;;;;;;5019724;28;20017;-60
2022/11/14 09:42:10;;;;;;;;;;;;;;;;;;5024971;28;19966;-61
2022/11/14 09:44:54;;;;;;;;;;;;;;;;;;5021668;28;19940;-60
2022/11/14 09:47:38;;;;;;;;;;;;;;;;;;5024533;28;19924;-61
2022/11/14 09:50:22;;;;;;;;;;;;;;;;;;5022039;28;19924;-61
2022/11/14 09:53:06;;;;;;;;;;;;;;;;;;5018596;28;20478;-61
2022/11/14 09:55:50;;;;;;;;;;;;;;;;;;5023684;28;19971;-60
2022/11/14 09:58:34;;;;;;;;;;;;;;;;;;5019676;28;20388;-63
2022/11/14 10:01:18;;;;;;;;;;;;;;;;;;5023754;28;19958;-61
2022/11/14 10:04:02;;;;;;;;;;;;;;;;;;5023681;28;20059;-60
2022/11/14 10:06:46;;;;;;;;;;;;;;;;;;5021536;28;19971;-61
2022/11/14 10:09:30;;;;;;;;;;;;;;;;;;5018252;28;20427;-60
2022/11/14 10:12:14;;;;;;;;;;;;;;;;;;5024457;28;20146;-61
2022/11/14 10:14:58;;;;;;;;;;;;;;;;;;5019518;28;20326;-60
2022/11/14 10:17:42;;;;;;;;;;;;;;;;;;5020667;28;19940;-60
2022/11/14 10:20:26;;;;;;;;;;;;;;;;;;5022154;28;19924;-59
2022/11/14 10:23:10;;;;;;;;;;;;;;;;;;5024360;28;19959;-60
2022/11/14 10:25:54;;;;;;;;;;;;;;;;;;5021289;28;19924;-61
2022/11/14 10:28:38;;;;;;;;;;;;;;;;;;5018970;28;19924;-61
2022/11/14 10:31:22;;;;;;;;;;;;;;;;;;5019469;28;19948;-61
2022/11/14 10:34:06;;;;;;;;;;;;;;;;;;5020829;28;19928;-61
2022/11/14 10:36:50;;;;;;;;;;;;;;;;;;5021692;28;19943;-60
2022/11/14 10:39:34;;;;;;;;;;;;;;;;;;5020366;28;20012;-61
2022/11/14 10:42:18;;;;;;;;;;;;;;;;;;5020210;28;19924;-61
2022/11/14 10:45:02;;;;;;;;;;;;;;;;;;5020427;28;19924;-61
2022/11/14 10:47:46;;;;;;;;;;;;;;;;;;5023590;28;20282;-60
2022/11/14 10:50:30;;;;;;;;;;;;;;;;;;5023203;28;20016;-60
2022/11/14 10:53:14;;;;;;;;;;;;;;;;;;5018901;28;19928;-60
2022/11/14 10:55:58;;;;;;;;;;;;;;;;;;5023147;28;20019;-61
2022/11/14 10:58:42;;;;;;;;;;;;;;;;;;5018643;28;19925;-60
2022/11/14 11:01:26;;;;;;;;;;;;;;;;;;5016835;28;19956;-61
2022/11/14 11:04:10;;;;;;;;;;;;;;;;;;5019054;28;19924;-62
2022/11/14 11:06:54;;;;;;;;;;;;;;;;;;5022334;28;19951;-60
2022/11/14 11:12:42;;;;;;;;;;;;;;;;;;5019574;28;19952;-65
2022/11/14 11:15:26;;;;;;;;;;;;;;;;;;5019875;28;19967;-62
2022/11/14 11:18:10;;;;;;;;;;;;;;;;;;5020694;28;19924;-62
2022/11/14 11:20:54;;;;;;;;;;;;;;;;;;5025276;28;20028;-61
2022/11/14 11:23:37;;;;;;;;;;;;;;;;;;5022430;28;20250;-61
2022/11/14 11:26:22;;;;;;;;;;;;;;;;;;5021603;28;20367;-61
2022/11/14 11:29:06;;;;;;;;;;;;;;;;;;5018063;28;19924;-61
2022/11/14 11:31:49;;;;;;;;;;;;;;;;;;5018624;28;19924;-61
2022/11/14 11:34:33;;;;;;;;;;;;;;;;;;5021976;28;19967;-62
2022/11/14 11:37:17;;;;;;;;;;;;;;;;;;5024674;28;19991;-59
2022/11/14 11:40:01;;;;;;;;;;;;;;;;;;5021975;28;20386;-60
2022/11/14 11:42:46;;;;;;;;;;;;;;;;;;5019935;28;19967;-62
2022/11/14 11:45:29;;;;;;;;;;;;;;;;;;5021651;28;19923;-61
2022/11/14 11:48:14;;;;;;;;;;;;;;;;;;5016400;28;20491;-61
2022/11/14 11:50:58;;;;;;;;;;;;;;;;;;5019226;28;19924;-61
2022/11/14 11:53:42;;;;;;;;;;;;;;;;;;5018884;28;19994;-61
2022/11/14 11:56:26;;;;;;;;;;;;;;;;;;5018871;28;19982;-63
2022/11/14 11:59:10;;;;;;;;;;;;;;;;;;5016868;28;19997;-62
2022/11/14 12:01:54;;;;;;;;;;;;;;;;;;5021232;28;20007;-62
2022/11/14 12:04:38;;;;;;;;;;;;;;;;;;5020231;28;19924;-62
2022/11/14 12:07:22;;;;;;;;;;;;;;;;;;5020525;28;19928;-61
2022/11/14 12:10:06;;;;;;;;;;;;;;;;;;5013241;28;19948;-63
2022/11/14 12:12:50;;;;;;;;;;;;;;;;;;5022750;28;19928;-62
2022/11/14 12:15:34;;;;;;;;;;;;;;;;;;5020319;28;19928;-62
2022/11/14 12:18:18;;;;;;;;;;;;;;;;;;5020152;28;19972;-61
2022/11/14 12:21:02;;;;;;;;;;;;;;;;;;5016457;28;20294;-61
2022/11/14 12:23:46;;;;;;;;;;;;;;;;;;5021546;28;19963;-61
2022/11/14 12:26:30;;;;;;;;;;;;;;;;;;5015903;28;19924;-62
2022/11/14 12:29:14;;;;;;;;;;;;;;;;;;5019436;28;19949;-62
2022/11/14 12:31:58;;;;;;;;;;;;;;;;;;5021203;28;20373;-62
2022/11/14 12:34:42;;;;;;;;;;;;;;;;;;5019404;28;19932;-62
2022/11/14 12:37:26;;;;;;;;;;;;;;;;;;5020808;28;19967;-62
2022/11/14 12:40:10;;;;;;;;;;;;;;;;;;5029494;28;19924;-62
2022/11/14 12:42:54;;;;;;;;;;;;;;;;;;5023985;28;19925;-62
2022/11/14 12:45:38;;;;;;;;;;;;;;;;;;5021014;28;20354;-61
2022/11/14 12:48:22;;;;;;;;;;;;;;;;;;5022164;28;19931;-61
2022/11/14 12:51:06;;;;;;;;;;;;;;;;;;5025725;28;19975;-61
2022/11/14 12:53:50;;;;;;;;;;;;;;;;;;5018609;28;20360;-61
2022/11/14 12:56:34;;;;;;;;;;;;;;;;;;5016906;28;19924;-61
2022/11/14 12:59:18;;;;;;;;;;;;;;;;;;5022749;28;19924;-61
2022/11/14 13:02:02;;;;;;;;;;;;;;;;;;5021655;28;19971;-61
2022/11/14 13:04:46;;;;;;;;;;;;;;;;;;5025166;28;20384;-62
2022/11/14 13:07:30;;;;;;;;;;;;;;;;;;5025281;28;19939;-62
2022/11/14 13:10:14;;;;;;;;;;;;;;;;;;5025050;28;19920;-61
2022/11/14 13:22:07;;;;;;;;;;;;;;;;;;5027481;28;20409;-61
2022/11/14 13:24:51;;;;;;;;;;;;;;;;;;5027968;28;19924;-62
2022/11/14 13:27:35;;;;;;;;;;;;;;;;;;5021497;28;19919;-62
2022/11/14 13:30:18;;;;;;;;;;;;;;;;;;5024106;28;19966;-62
2022/11/14 13:33:03;;;;;;;;;;;;;;;;;;5022483;28;19944;-62
2022/11/14 13:35:47;;;;;;;;;;;;;;;;;;5024746;28;19924;-62
2022/11/14 13:38:31;;;;;;;;;;;;;;;;;;5025998;28;20004;-62
2022/11/14 13:41:14;;;;;;;;;;;;;;;;;;5024882;28;20432;-61
2022/11/14 13:43:59;;;;;;;;;;;;;;;;;;5024259;28;19967;-61
2022/11/14 13:46:42;;;;;;;;;;;;;;;;;;5021421;28;19921;-62
2022/11/14 13:49:26;;;;;;;;;;;;;;;;;;5024676;28;20000;-61
2022/11/14 13:52:10;;;;;;;;;;;;;;;;;;5024114;28;19991;-61
2022/11/14 13:54:54;;;;;;;;;;;;;;;;;;5025323;28;19924;-61
2022/11/14 13:57:41;;;;;;;;;;;;;;;;;;5024078;28;20271;-61
2022/11/14 14:00:24;;;;;;;;;;;;;;;;;;5023055;28;19920;-61
2022/11/14 14:03:09;;;;;;;;;;;;;;;;;;5019644;28;19936;-61
2022/11/14 14:05:53;;;;;;;;;;;;;;;;;;5022667;28;19923;-61
2022/11/14 14:08:37;;;;;;;;;;;;;;;;;;5024236;28;19940;-61
2022/11/14 14:11:21;;;;;;;;;;;;;;;;;;5022982;28;20404;-61
2022/11/14 14:14:05;;;;;;;;;;;;;;;;;;5022098;28;20438;-61
2022/11/14 14:16:48;;;;;;;;;;;;;;;;;;5021885;28;19928;-61
2022/11/14 14:19:32;;;;;;;;;;;;;;;;;;5022035;28;20313;-61
2022/11/14 14:22:16;;;;;;;;;;;;;;;;;;5021965;28;20048;-61
2022/11/14 14:25:00;;;;;;;;;;;;;;;;;;5024621;28;19924;-62
2022/11/14 14:27:44;;;;;;;;;;;;;;;;;;5024184;28;20333;-61
2022/11/14 14:30:28;;;;;;;;;;;;;;;;;;5021752;28;20388;-61
2022/11/14 14:33:12;;;;;;;;;;;;;;;;;;5020618;28;20407;-61
2022/11/14 14:35:56;;;;;;;;;;;;;;;;;;5022776;28;20240;-61
2022/11/14 14:38:40;;;;;;;;;;;;;;;;;;5020560;28;19924;-61
2022/11/14 14:41:24;;;;;;;;;;;;;;;;;;5023306;28;19971;-61
2022/11/14 14:44:08;;;;;;;;;;;;;;;;;;5018349;28;19936;-61
2022/11/14 14:46:52;;;;;;;;;;;;;;;;;;5023231;28;19968;-61
2022/11/14 14:49:36;;;;;;;;;;;;;;;;;;5019255;28;19924;-61
2022/11/14 14:52:20;;;;;;;;;;;;;;;;;;5020809;28;19921;-61
2022/11/14 14:55:05;;;;;;;;;;;;;;;;;;5028878;28;19924;-61
2022/11/14 14:57:49;;;;;;;;;;;;;;;;;;5020913;28;20439;-61
2022/11/14 15:00:33;;;;;;;;;;;;;;;;;;5022003;28;19924;-61
2022/11/14 15:03:17;;;;;;;;;;;;;;;;;;5020412;28;20395;-61
2022/11/14 15:06:01;;;;;;;;;;;;;;;;;;5023806;28;20047;-61
2022/11/14 15:08:45;;;;;;;;;;;;;;;;;;5022559;28;19924;-60
2022/11/14 15:11:29;;;;;;;;;;;;;;;;;;5021268;28;20615;-61
2022/11/14 15:14:13;;;;;;;;;;;;;;;;;;5026323;28;19967;-61
2022/11/14 15:16:57;;;;;;;;;;;;;;;;;;5027945;28;19994;-61
2022/11/14 15:19:41;;;;;;;;;;;;;;;;;;5023707;28;20452;-61
2022/11/14 15:22:27;;;;;;;;;;;;;;;;;;5021897;28;20290;-60
2022/11/14 15:25:11;;;;;;;;;;;;;;;;;;5022455;28;19979;-62
2022/11/14 15:27:59;;;;;;;;;;;;;;;;;;5023736;28;19994;-60
2022/11/14 15:30:42;;;;;;;;;;;;;;;;;;5023203;28;19928;-60
2022/11/14 15:33:26;;;;;;;;;;;;;;;;;;5022297;28;20404;-61
2022/11/14 15:36:10;;;;;;;;;;;;;;;;;;5020888;28;19967;-61
2022/11/14 15:38:54;;;;;;;;;;;;;;;;;;5051395;28;19924;-61
2022/11/14 15:41:38;;;;;;;;;;;;;;;;;;5022645;28;20008;-61
2022/11/14 15:44:22;;;;;;;;;;;;;;;;;;5019200;28;19967;-62
2022/11/14 15:47:07;;;;;;;;;;;;;;;;;;5021636;28;20052;-62
2022/11/14 15:49:50;;;;;;;;;;;;;;;;;;5026095;28;19963;-62
2022/11/14 15:52:34;;;;;;;;;;;;;;;;;;5023335;28;20085;-62
2022/11/14 15:55:18;;;;;;;;;;;;;;;;;;5019115;28;19928;-62
2022/11/14 15:58:02;;;;;;;;;;;;;;;;;;5024719;28;20011;-62
2022/11/14 16:00:46;;;;;;;;;;;;;;;;;;5026328;28;20004;-61
2022/11/14 16:03:30;;;;;;;;;;;;;;;;;;5025572;28;19924;-60
2022/11/14 16:06:15;;;;;;;;;;;;;;;;;;5020833;28;20341;-62
2022/11/14 16:08:59;;;;;;;;;;;;;;;;;;5023568;28;19982;-62
2022/11/14 16:11:43;;;;;;;;;;;;;;;;;;5018804;28;19920;-62
2022/11/14 16:14:27;;;;;;;;;;;;;;;;;;5025542;28;19974;-60
2022/11/14 16:17:11;;;;;;;;;;;;;;;;;;5024703;28;19924;-60
2022/11/14 16:19:55;;;;;;;;;;;;;;;;;;5016688;28;19924;-60
2022/11/14 16:22:39;;;;;;;;;;;;;;;;;;5022427;28;19924;-61
2022/11/14 16:25:23;;;;;;;;;;;;;;;;;;5021745;28;19920;-62
2022/11/14 16:28:07;;;;;;;;;;;;;;;;;;5018419;28;19944;-62
2022/11/14 16:30:51;;;;;;;;;;;;;;;;;;5018347;28;19921;-62
2022/11/14 16:33:35;;;;;;;;;;;;;;;;;;5019719;28;20472;-62
2022/11/14 16:36:19;;;;;;;;;;;;;;;;;;5028437;28;20518;-62
2022/11/14 16:39:09;;;;;;;;;;;;;;;;;;5025581;28;19924;-62
2022/11/14 16:41:52;;;;;;;;;;;;;;;;;;5025547;28;19924;-62
2022/11/14 16:44:36;;;;;;;;;;;;;;;;;;5017177;28;19925;-62
2022/11/14 16:47:20;;;;;;;;;;;;;;;;;;5027342;28;19999;-62
2022/11/14 16:50:04;;;;;;;;;;;;;;;;;;5025555;28;19940;-62
2022/11/14 16:52:48;;;;;;;;;;;;;;;;;;5024207;28;19920;-62
2022/11/14 16:55:32;;;;;;;;;;;;;;;;;;5024766;28;20001;-62
2022/11/14 16:58:16;;;;;;;;;;;;;;;;;;5031187;28;19924;-62
2022/11/14 17:01:00;;;;;;;;;;;;;;;;;;5030479;28;19943;-62
2022/11/14 17:03:44;;;;;;;;;;;;;;;;;;5028554;28;20004;-62
2022/11/14 17:06:28;;;;;;;;;;;;;;;;;;5025105;28;20444;-62
2022/11/14 17:09:12;;;;;;;;;;;;;;;;;;5025244;28;19940;-62
2022/11/14 17:11:56;;;;;;;;;;;;;;;;;;5026785;28;19923;-61
2022/11/14 17:14:40;;;;;;;;;;;;;;;;;;5019324;28;20381;-62
2022/11/14 17:17:24;;;;;;;;;;;;;;;;;;5024719;28;20489;-62
2022/11/14 17:20:09;;;;;;;;;;;;;;;;;;5027149;28;20043;-62
2022/11/14 17:22:54;;;;;;;;;;;;;;;;;;5025594;28;20397;-62
2022/11/14 17:25:37;;;;;;;;;;;;;;;;;;5024008;28;20435;-62
2022/11/14 17:28:22;;;;;;;;;;;;;;;;;;5021472;28;20051;-62
2022/11/14 17:31:06;;;;;;;;;;;;;;;;;;5024288;28;19924;-62
2022/11/14 17:33:50;;;;;;;;;;;;;;;;;;5022272;28;19947;-62
2022/11/14 17:36:34;;;;;;;;;;;;;;;;;;5023382;28;19927;-61
2022/11/14 17:39:18;;;;;;;;;;;;;;;;;;5024140;28;19940;-61
2022/11/14 17:42:02;;;;;;;;;;;;;;;;;;5024904;28;19936;-61
2022/11/14 17:44:46;;;;;;;;;;;;;;;;;;5023695;28;19924;-61
2022/11/14 17:47:30;;;;;;;;;;;;;;;;;;5025594;28;20023;-61
2022/11/14 17:50:14;;;;;;;;;;;;;;;;;;5023207;28;19926;-62
2022/11/14 17:52:58;;;;;;;;;;;;;;;;;;5029070;28;19951;-61
2022/11/14 17:55:42;;;;;;;;;;;;;;;;;;5022903;28;19979;-62
2022/11/14 17:58:25;;;;;;;;;;;;;;;;;;5025248;28;19924;-62
2022/11/14 18:01:10;;;;;;;;;;;;;;;;;;5021806;28;19941;-61
2022/11/14 18:03:53;;;;;;;;;;;;;;;;;;5020787;28;20142;-62
2022/11/14 18:06:37;;;;;;;;;;;;;;;;;;5018258;28;19924;-62
2022/11/14 18:09:21;;;;;;;;;;;;;;;;;;5023580;28;20000;-62
2022/11/14 18:12:05;;;;;;;;;;;;;;;;;;5024666;28;20281;-62
2022/11/14 18:14:49;;;;;;;;;;;;;;;;;;5025417;28;20453;-62
2022/11/14 18:17:33;;;;;;;;;;;;;;;;;;5023263;28;20002;-62
2022/11/14 18:20:17;;;;;;;;;;;;;;;;;;5024972;28;19970;-62
2022/11/14 18:23:01;;;;;;;;;;;;;;;;;;5018289;28;20401;-62
2022/11/14 18:25:45;;;;;;;;;;;;;;;;;;5022191;28;19939;-62
2022/11/14 18:28:29;;;;;;;;;;;;;;;;;;5022417;28;19928;-62
2022/11/14 18:31:13;;;;;;;;;;;;;;;;;;5020131;28;19928;-61
2022/11/14 18:33:57;;;;;;;;;;;;;;;;;;5023441;28;20441;-62
2022/11/14 18:36:41;;;;;;;;;;;;;;;;;;5021849;28;20341;-62
2022/11/14 18:39:27;;;;;;;;;;;;;;;;;;5021860;28;19924;-61
2022/11/14 18:42:11;;;;;;;;;;;;;;;;;;5022365;28;20040;-62
2022/11/14 18:44:55;;;;;;;;;;;;;;;;;;5025869;28;19974;-62
2022/11/14 18:47:39;;;;;;;;;;;;;;;;;;5020047;28;19927;-61
2022/11/14 18:50:23;;;;;;;;;;;;;;;;;;5021915;28;20055;-61
2022/11/14 18:53:07;;;;;;;;;;;;;;;;;;5021492;28;19948;-61